createdAt,value
2018-06-24T00:00:20.083Z,21.00
2018-06-24T00:00:51.783Z,21.10
2018-06-24T00:01:23.539Z,21.10
2018-06-24T00:01:55.285Z,21.10
2018-06-24T00:02:26.992Z,21.00
2018-06-24T00:02:58.710Z,21.00
2018-06-24T00:03:30.431Z,21.00
2018-06-24T00:04:02.140Z,21.00
2018-06-24T00:04:33.876Z,21.00
2018-06-24T00:05:05.584Z,20.90
2018-06-24T00:05:37.328Z,20.90
2018-06-24T00:06:09.073Z,20.90
2018-06-24T00:06:40.794Z,20.90
2018-06-24T00:07:12.506Z,20.90
2018-06-24T00:07:44.223Z,20.90
2018-06-24T00:08:15.941Z,20.90
2018-06-24T00:08:47.666Z,20.90
2018-06-24T00:09:19.379Z,20.90
2018-06-24T00:09:51.096Z,20.80
2018-06-24T00:10:22.837Z,20.80
2018-06-24T00:10:54.550Z,20.80
2018-06-24T00:11:26.267Z,20.80
2018-06-24T00:11:58.007Z,20.80
2018-06-24T00:12:29.726Z,20.80
2018-06-24T00:13:01.478Z,20.80
2018-06-24T00:13:33.212Z,20.70
2018-06-24T00:14:04.930Z,20.70
2018-06-24T00:14:36.691Z,20.80
2018-06-24T00:15:08.433Z,20.70
2018-06-24T00:15:40.138Z,20.70
2018-06-24T00:16:11.851Z,20.70
2018-06-24T00:16:43.663Z,20.70
2018-06-24T00:17:15.328Z,20.70
2018-06-24T00:17:47.062Z,20.80
2018-06-24T00:18:18.754Z,20.70
2018-06-24T00:18:50.498Z,20.80
2018-06-24T00:19:22.228Z,20.80
2018-06-24T00:19:53.938Z,20.70
2018-06-24T00:20:25.653Z,20.70
2018-06-24T00:20:57.389Z,20.70
2018-06-24T00:21:29.106Z,20.80
2018-06-24T00:22:00.828Z,20.70
2018-06-24T00:22:32.533Z,20.70
2018-06-24T00:23:04.248Z,20.70
2018-06-24T00:23:35.969Z,20.70
2018-06-24T00:24:07.682Z,20.80
2018-06-24T00:24:39.403Z,20.80
2018-06-24T00:25:11.169Z,20.80
2018-06-24T00:25:42.880Z,20.80
2018-06-24T00:26:14.601Z,20.70
2018-06-24T00:26:46.372Z,20.70
2018-06-24T00:27:18.100Z,20.70
2018-06-24T00:27:49.831Z,20.70
2018-06-24T00:28:21.582Z,20.70
2018-06-24T00:28:53.340Z,20.70
2018-06-24T00:29:25.068Z,20.70
2018-06-24T00:29:56.784Z,20.70
2018-06-24T00:30:28.491Z,20.70
2018-06-24T00:31:00.218Z,20.70
2018-06-24T00:31:31.977Z,20.70
2018-06-24T00:32:03.699Z,20.70
2018-06-24T00:32:35.418Z,20.70
2018-06-24T00:33:07.151Z,20.70
2018-06-24T00:33:38.872Z,20.70
2018-06-24T00:34:10.600Z,20.70
2018-06-24T00:34:42.325Z,20.70
2018-06-24T00:35:14.042Z,20.70
2018-06-24T00:35:45.770Z,20.70
2018-06-24T00:36:17.611Z,20.70
2018-06-24T00:36:49.434Z,20.70
2018-06-24T00:37:21.187Z,20.70
2018-06-24T00:37:52.886Z,20.70
2018-06-24T00:38:24.594Z,20.70
2018-06-24T00:38:56.305Z,20.70
2018-06-24T00:39:28.026Z,20.70
2018-06-24T00:39:59.745Z,20.70
2018-06-24T00:40:31.454Z,20.70
2018-06-24T00:41:03.172Z,20.70
2018-06-24T00:41:34.895Z,20.70
2018-06-24T00:42:06.643Z,20.70
2018-06-24T00:42:38.374Z,20.70
2018-06-24T00:43:10.101Z,20.70
2018-06-24T00:43:41.806Z,20.80
2018-06-24T00:44:13.522Z,20.70
2018-06-24T00:44:45.238Z,20.70
2018-06-24T00:45:16.971Z,20.70
2018-06-24T00:45:48.673Z,20.70
2018-06-24T00:46:20.395Z,20.70
2018-06-24T00:46:52.086Z,20.70
2018-06-24T00:47:23.801Z,20.70
2018-06-24T00:47:55.519Z,20.80
2018-06-24T00:48:27.239Z,20.80
2018-06-24T00:48:58.947Z,20.80
2018-06-24T00:49:30.726Z,20.80
2018-06-24T00:50:02.407Z,20.80
2018-06-24T00:50:34.127Z,20.80
2018-06-24T00:51:05.866Z,20.80
2018-06-24T00:51:37.577Z,20.80
2018-06-24T00:52:09.307Z,20.80
2018-06-24T00:52:41.013Z,20.80
2018-06-24T00:53:12.733Z,20.80
2018-06-24T00:53:44.467Z,20.80
2018-06-24T00:54:16.190Z,20.80
2018-06-24T00:54:47.897Z,20.80
2018-06-24T00:55:19.639Z,20.80
2018-06-24T00:55:51.367Z,20.80
2018-06-24T00:56:23.059Z,20.80
2018-06-24T00:56:54.784Z,20.70
2018-06-24T00:57:26.487Z,20.70
2018-06-24T00:57:58.246Z,20.70
2018-06-24T00:58:29.975Z,20.70
2018-06-24T00:59:01.702Z,20.70
2018-06-24T00:59:33.402Z,20.80
2018-06-24T01:00:05.139Z,20.70
2018-06-24T01:00:36.836Z,20.70
2018-06-24T01:01:08.539Z,20.70
2018-06-24T01:01:40.257Z,20.70
2018-06-24T01:02:12.010Z,20.70
2018-06-24T01:02:43.748Z,20.70
2018-06-24T01:03:15.469Z,20.70
2018-06-24T01:03:47.214Z,20.70
2018-06-24T01:04:18.939Z,20.70
2018-06-24T01:04:50.649Z,20.70
2018-06-24T01:05:22.404Z,20.70
2018-06-24T01:05:54.129Z,20.70
2018-06-24T01:06:25.952Z,20.70
2018-06-24T01:06:57.707Z,20.60
2018-06-24T01:07:29.530Z,20.60
2018-06-24T01:08:01.328Z,20.60
2018-06-24T01:08:33.085Z,20.60
2018-06-24T01:09:04.912Z,20.70
2018-06-24T01:09:36.594Z,20.70
2018-06-24T01:10:08.322Z,20.70
2018-06-24T01:10:40.027Z,20.60
2018-06-24T01:11:11.749Z,20.60
2018-06-24T01:11:43.461Z,20.60
2018-06-24T01:12:15.215Z,20.60
2018-06-24T01:12:46.953Z,20.60
2018-06-24T01:13:18.669Z,20.60
2018-06-24T01:13:50.390Z,20.60
2018-06-24T01:14:22.135Z,20.60
2018-06-24T01:14:53.862Z,20.50
2018-06-24T01:15:25.575Z,20.50
2018-06-24T01:15:57.315Z,20.50
2018-06-24T01:16:29.034Z,20.50
2018-06-24T01:17:00.750Z,20.50
2018-06-24T01:17:32.469Z,20.50
2018-06-24T01:18:04.198Z,20.50
2018-06-24T01:18:35.942Z,20.50
2018-06-24T01:19:07.630Z,20.50
2018-06-24T01:19:39.346Z,20.50
2018-06-24T01:20:11.087Z,20.40
2018-06-24T01:20:42.794Z,20.40
2018-06-24T01:21:14.511Z,20.40
2018-06-24T01:21:46.289Z,20.50
2018-06-24T01:22:17.989Z,20.50
2018-06-24T01:22:49.722Z,20.50
2018-06-24T01:23:21.463Z,20.50
2018-06-24T01:23:53.174Z,20.50
2018-06-24T01:24:24.868Z,20.50
2018-06-24T01:24:56.597Z,20.50
2018-06-24T01:25:28.330Z,20.60
2018-06-24T01:26:00.075Z,20.60
2018-06-24T01:26:31.788Z,20.50
2018-06-24T01:27:03.495Z,20.50
2018-06-24T01:27:35.232Z,20.50
2018-06-24T01:28:06.958Z,20.60
2018-06-24T01:28:38.673Z,20.60
2018-06-24T01:29:10.395Z,20.60
2018-06-24T01:29:42.115Z,20.60
2018-06-24T01:30:13.846Z,20.60
2018-06-24T01:30:45.549Z,20.60
2018-06-24T01:31:17.291Z,20.60
2018-06-24T01:31:49.019Z,20.60
2018-06-24T01:32:20.706Z,20.60
2018-06-24T01:32:52.447Z,20.60
2018-06-24T01:33:24.181Z,20.60
2018-06-24T01:33:55.886Z,20.60
2018-06-24T01:34:27.610Z,20.60
2018-06-24T01:34:59.317Z,20.60
2018-06-24T01:35:31.040Z,20.60
2018-06-24T01:36:02.754Z,20.60
2018-06-24T01:36:34.466Z,20.60
2018-06-24T01:37:06.186Z,20.70
2018-06-24T01:37:37.912Z,20.60
2018-06-24T01:38:09.630Z,20.60
2018-06-24T01:38:41.342Z,20.70
2018-06-24T01:39:13.062Z,20.60
2018-06-24T01:39:44.792Z,20.60
2018-06-24T01:40:16.525Z,20.60
2018-06-24T01:40:48.216Z,20.70
2018-06-24T01:41:19.955Z,20.60
2018-06-24T01:41:51.735Z,20.60
2018-06-24T01:42:23.426Z,20.60
2018-06-24T01:42:55.163Z,20.60
2018-06-24T01:43:26.888Z,20.60
2018-06-24T01:43:58.599Z,20.60
2018-06-24T01:44:30.329Z,20.60
2018-06-24T01:45:02.056Z,20.60
2018-06-24T01:45:33.762Z,20.60
2018-06-24T01:46:05.484Z,20.60
2018-06-24T01:46:37.198Z,20.60
2018-06-24T01:47:08.909Z,20.60
2018-06-24T01:47:40.680Z,20.60
2018-06-24T01:48:12.390Z,20.60
2018-06-24T01:48:44.105Z,20.60
2018-06-24T01:49:15.824Z,20.60
2018-06-24T01:49:47.541Z,20.60
2018-06-24T01:50:19.252Z,20.70
2018-06-24T01:50:50.958Z,20.60
2018-06-24T01:51:22.687Z,20.70
2018-06-24T01:51:54.458Z,20.70
2018-06-24T01:52:26.162Z,20.70
2018-06-24T01:52:57.875Z,20.70
2018-06-24T01:53:29.612Z,20.70
2018-06-24T01:54:01.327Z,20.70
2018-06-24T01:54:33.051Z,20.70
2018-06-24T01:55:04.758Z,20.70
2018-06-24T01:55:36.472Z,20.70
2018-06-24T01:56:08.198Z,20.70
2018-06-24T01:56:39.909Z,20.70
2018-06-24T01:57:11.613Z,20.70
2018-06-24T01:57:43.346Z,20.70
2018-06-24T01:58:15.195Z,20.70
2018-06-24T01:58:46.873Z,20.60
2018-06-24T01:59:18.602Z,20.60
2018-06-24T01:59:50.333Z,20.60
2018-06-24T02:00:22.042Z,20.70
2018-06-24T02:00:53.771Z,20.60
2018-06-24T02:01:25.477Z,20.70
2018-06-24T02:01:57.191Z,20.70
2018-06-24T02:02:28.913Z,20.70
2018-06-24T02:03:00.646Z,20.70
2018-06-24T02:03:32.375Z,20.70
2018-06-24T02:04:04.093Z,20.70
2018-06-24T02:04:35.806Z,20.70
2018-06-24T02:05:07.544Z,20.70
2018-06-24T02:05:39.271Z,20.70
2018-06-24T02:06:11.005Z,20.70
2018-06-24T02:06:42.734Z,20.70
2018-06-24T02:07:14.444Z,20.70
2018-06-24T02:07:46.170Z,20.70
2018-06-24T02:08:17.889Z,20.70
2018-06-24T02:08:49.622Z,20.70
2018-06-24T02:09:21.322Z,20.70
2018-06-24T02:09:53.043Z,20.70
2018-06-24T02:10:24.754Z,20.70
2018-06-24T02:10:56.487Z,20.70
2018-06-24T02:11:28.200Z,20.80
2018-06-24T02:11:59.913Z,20.70
2018-06-24T02:12:31.627Z,20.50
2018-06-24T02:13:03.349Z,20.70
2018-06-24T02:13:35.099Z,20.70
2018-06-24T02:14:06.779Z,20.70
2018-06-24T02:14:38.500Z,20.70
2018-06-24T02:15:10.241Z,20.70
2018-06-24T02:15:41.934Z,20.80
2018-06-24T02:16:13.660Z,20.80
2018-06-24T02:16:45.387Z,20.80
2018-06-24T02:17:17.102Z,20.80
2018-06-24T02:17:48.846Z,20.80
2018-06-24T02:18:20.562Z,20.80
2018-06-24T02:18:52.287Z,20.80
2018-06-24T02:19:23.995Z,20.70
2018-06-24T02:19:55.714Z,20.70
2018-06-24T02:20:27.436Z,20.70
2018-06-24T02:20:59.155Z,20.70
2018-06-24T02:21:30.867Z,20.70
2018-06-24T02:22:02.593Z,20.80
2018-06-24T02:22:34.321Z,20.70
2018-06-24T02:23:06.060Z,20.70
2018-06-24T02:23:37.848Z,20.70
2018-06-24T02:24:09.529Z,20.70
2018-06-24T02:24:41.246Z,20.70
2018-06-24T02:25:12.995Z,20.70
2018-06-24T02:25:44.726Z,20.70
2018-06-24T02:26:16.458Z,20.70
2018-06-24T02:26:48.241Z,20.70
2018-06-24T02:27:19.956Z,20.70
2018-06-24T02:27:51.679Z,20.70
2018-06-24T02:28:23.433Z,20.70
2018-06-24T02:28:55.134Z,20.70
2018-06-24T02:29:26.869Z,20.70
2018-06-24T02:29:58.588Z,20.70
2018-06-24T02:30:30.302Z,20.70
2018-06-24T02:31:02.015Z,20.70
2018-06-24T02:31:33.738Z,20.70
2018-06-24T02:32:05.445Z,20.70
2018-06-24T02:32:37.177Z,20.70
2018-06-24T02:33:08.994Z,20.70
2018-06-24T02:33:40.807Z,20.70
2018-06-24T02:34:12.520Z,20.70
2018-06-24T02:34:44.252Z,20.70
2018-06-24T02:35:15.947Z,20.70
2018-06-24T02:35:47.672Z,20.80
2018-06-24T02:36:19.390Z,20.80
2018-06-24T02:36:51.124Z,20.80
2018-06-24T02:37:22.851Z,20.80
2018-06-24T02:37:54.565Z,20.80
2018-06-24T02:38:26.277Z,20.80
2018-06-24T02:38:57.986Z,20.90
2018-06-24T02:39:29.723Z,20.90
2018-06-24T02:40:01.457Z,20.90
2018-06-24T02:40:33.157Z,20.90
2018-06-24T02:41:04.879Z,20.90
2018-06-24T02:41:36.592Z,20.90
2018-06-24T02:42:08.323Z,20.90
2018-06-24T02:42:40.032Z,20.90
2018-06-24T02:43:11.767Z,20.90
2018-06-24T02:43:43.489Z,20.90
2018-06-24T02:44:15.266Z,20.90
2018-06-24T02:44:47.002Z,20.90
2018-06-24T02:45:18.732Z,20.90
2018-06-24T02:45:50.448Z,20.90
2018-06-24T02:46:22.181Z,20.90
2018-06-24T02:46:53.879Z,20.90
2018-06-24T02:47:25.608Z,20.90
2018-06-24T02:47:57.327Z,20.90
2018-06-24T02:48:29.070Z,20.90
2018-06-24T02:49:00.776Z,20.80
2018-06-24T02:49:32.497Z,20.80
2018-06-24T02:50:04.252Z,20.80
2018-06-24T02:50:35.979Z,20.80
2018-06-24T02:51:07.702Z,20.80
2018-06-24T02:51:39.410Z,20.80
2018-06-24T02:52:11.150Z,20.80
2018-06-24T02:52:42.865Z,20.80
2018-06-24T02:53:14.594Z,20.80
2018-06-24T02:53:46.399Z,20.80
2018-06-24T02:54:18.048Z,20.70
2018-06-24T02:54:49.765Z,20.80
2018-06-24T02:55:21.466Z,20.80
2018-06-24T02:55:53.182Z,20.80
2018-06-24T02:56:24.906Z,20.80
2018-06-24T02:56:56.601Z,20.70
2018-06-24T02:57:28.344Z,20.70
2018-06-24T02:58:00.063Z,20.70
2018-06-24T02:58:31.793Z,20.70
2018-06-24T02:59:03.537Z,20.70
2018-06-24T02:59:35.265Z,20.70
2018-06-24T03:00:06.978Z,20.70
2018-06-24T03:00:38.691Z,20.70
2018-06-24T03:01:10.418Z,20.70
2018-06-24T03:01:42.132Z,20.70
2018-06-24T03:02:13.859Z,20.70
2018-06-24T03:02:45.564Z,20.70
2018-06-24T03:03:17.290Z,20.70
2018-06-24T03:03:49.041Z,20.80
2018-06-24T03:04:20.760Z,20.80
2018-06-24T03:04:52.466Z,20.80
2018-06-24T03:05:24.195Z,20.80
2018-06-24T03:05:55.886Z,20.80
2018-06-24T03:06:27.625Z,20.80
2018-06-24T03:06:59.327Z,20.80
2018-06-24T03:07:31.044Z,20.80
2018-06-24T03:08:02.789Z,20.80
2018-06-24T03:08:34.500Z,20.80
2018-06-24T03:09:06.207Z,20.80
2018-06-24T03:09:37.930Z,20.90
2018-06-24T03:10:09.642Z,20.90
2018-06-24T03:10:41.366Z,20.90
2018-06-24T03:11:13.088Z,20.90
2018-06-24T03:11:44.804Z,20.90
2018-06-24T03:12:17.207Z,20.90
2018-06-24T03:12:48.910Z,20.90
2018-06-24T03:13:20.627Z,20.90
2018-06-24T03:13:52.405Z,20.90
2018-06-24T03:14:24.117Z,20.90
2018-06-24T03:14:55.841Z,20.90
2018-06-24T03:15:27.567Z,20.90
2018-06-24T03:15:59.287Z,20.90
2018-06-24T03:16:31.027Z,20.90
2018-06-24T03:17:02.728Z,20.90
2018-06-24T03:17:34.482Z,20.90
2018-06-24T03:18:06.209Z,20.90
2018-06-24T03:18:37.958Z,20.90
2018-06-24T03:19:09.683Z,20.90
2018-06-24T03:19:41.402Z,20.80
2018-06-24T03:20:13.122Z,20.80
2018-06-24T03:20:44.851Z,20.80
2018-06-24T03:21:16.590Z,20.80
2018-06-24T03:21:48.294Z,20.80
2018-06-24T03:22:20.024Z,20.80
2018-06-24T03:22:51.742Z,20.80
2018-06-24T03:23:23.476Z,20.80
2018-06-24T03:23:55.201Z,20.80
2018-06-24T03:24:26.916Z,20.80
2018-06-24T03:24:58.632Z,20.80
2018-06-24T03:25:30.348Z,20.80
2018-06-24T03:26:02.059Z,20.80
2018-06-24T03:26:33.777Z,20.80
2018-06-24T03:27:05.488Z,20.70
2018-06-24T03:27:37.210Z,20.80
2018-06-24T03:28:08.957Z,20.80
2018-06-24T03:28:40.672Z,20.80
2018-06-24T03:29:12.391Z,20.80
2018-06-24T03:29:44.167Z,20.80
2018-06-24T03:30:15.894Z,20.80
2018-06-24T03:30:47.617Z,20.70
2018-06-24T03:31:19.364Z,20.70
2018-06-24T03:31:51.062Z,20.70
2018-06-24T03:32:22.797Z,20.70
2018-06-24T03:32:54.538Z,20.70
2018-06-24T03:33:26.240Z,20.70
2018-06-24T03:33:57.944Z,20.70
2018-06-24T03:34:29.662Z,20.80
2018-06-24T03:35:01.396Z,20.80
2018-06-24T03:35:33.150Z,20.80
2018-06-24T03:36:04.898Z,20.80
2018-06-24T03:36:36.599Z,20.80
2018-06-24T03:37:08.342Z,20.80
2018-06-24T03:37:40.071Z,20.80
2018-06-24T03:38:11.788Z,20.80
2018-06-24T03:38:43.510Z,20.80
2018-06-24T03:39:15.224Z,20.80
2018-06-24T03:39:46.926Z,20.80
2018-06-24T03:40:18.659Z,20.90
2018-06-24T03:40:50.366Z,20.90
2018-06-24T03:41:22.127Z,20.90
2018-06-24T03:41:53.830Z,20.90
2018-06-24T03:42:25.585Z,20.90
2018-06-24T03:42:57.294Z,20.90
2018-06-24T03:43:29.031Z,20.90
2018-06-24T03:44:00.770Z,20.90
2018-06-24T03:44:32.510Z,20.90
2018-06-24T03:45:04.240Z,20.90
2018-06-24T03:45:35.951Z,20.90
2018-06-24T03:46:07.702Z,20.90
2018-06-24T03:46:39.401Z,20.90
2018-06-24T03:47:11.122Z,20.90
2018-06-24T03:47:42.860Z,20.90
2018-06-24T03:48:14.557Z,20.90
2018-06-24T03:48:46.279Z,20.90
2018-06-24T03:49:17.985Z,20.90
2018-06-24T03:49:49.730Z,20.90
2018-06-24T03:50:21.440Z,20.90
2018-06-24T03:50:53.162Z,20.90
2018-06-24T03:51:24.884Z,20.90
2018-06-24T03:51:56.605Z,21.00
2018-06-24T03:52:28.307Z,21.00
2018-06-24T03:53:00.043Z,21.00
2018-06-24T03:53:31.772Z,21.00
2018-06-24T03:54:03.615Z,21.00
2018-06-24T03:54:35.294Z,21.00
2018-06-24T03:55:07.029Z,21.00
2018-06-24T03:55:38.773Z,21.00
2018-06-24T03:56:10.495Z,21.00
2018-06-24T03:56:42.204Z,20.90
2018-06-24T03:57:13.924Z,20.90
2018-06-24T03:57:45.665Z,20.90
2018-06-24T03:58:17.391Z,20.90
2018-06-24T03:58:49.100Z,20.90
2018-06-24T03:59:20.833Z,20.90
2018-06-24T03:59:52.536Z,20.90
2018-06-24T04:00:24.271Z,20.90
2018-06-24T04:00:56.040Z,20.90
2018-06-24T04:01:27.740Z,20.90
2018-06-24T04:01:59.473Z,20.90
2018-06-24T04:02:31.206Z,20.90
2018-06-24T04:03:02.923Z,20.90
2018-06-24T04:03:34.637Z,20.90
2018-06-24T04:04:06.406Z,20.90
2018-06-24T04:04:38.116Z,20.90
2018-06-24T04:05:09.866Z,20.90
2018-06-24T04:05:41.578Z,20.90
2018-06-24T04:06:13.315Z,20.90
2018-06-24T04:06:45.032Z,20.90
2018-06-24T04:07:16.739Z,20.90
2018-06-24T04:07:48.474Z,20.90
2018-06-24T04:08:20.214Z,20.90
2018-06-24T04:08:51.932Z,20.90
2018-06-24T04:09:23.657Z,20.90
2018-06-24T04:09:55.378Z,20.90
2018-06-24T04:10:27.121Z,20.90
2018-06-24T04:10:58.845Z,20.90
2018-06-24T04:11:30.584Z,20.90
2018-06-24T04:12:02.314Z,20.90
2018-06-24T04:12:34.033Z,20.90
2018-06-24T04:13:05.760Z,20.90
2018-06-24T04:13:37.469Z,20.90
2018-06-24T04:14:09.218Z,20.90
2018-06-24T04:14:40.947Z,20.90
2018-06-24T04:15:12.657Z,20.90
2018-06-24T04:15:44.378Z,20.90
2018-06-24T04:16:16.106Z,20.90
2018-06-24T04:16:47.830Z,21.00
2018-06-24T04:17:19.578Z,20.90
2018-06-24T04:17:51.275Z,20.90
2018-06-24T04:18:23.001Z,21.00
2018-06-24T04:18:54.720Z,20.90
2018-06-24T04:19:26.439Z,20.90
2018-06-24T04:19:58.174Z,20.90
2018-06-24T04:20:29.926Z,20.90
2018-06-24T04:21:01.638Z,20.90
2018-06-24T04:21:33.436Z,20.90
2018-06-24T04:22:05.186Z,20.90
2018-06-24T04:22:36.897Z,20.90
2018-06-24T04:23:08.623Z,20.80
2018-06-24T04:23:40.386Z,20.90
2018-06-24T04:24:12.110Z,20.90
2018-06-24T04:24:43.858Z,20.90
2018-06-24T04:25:15.631Z,20.90
2018-06-24T04:25:47.388Z,20.90
2018-06-24T04:26:19.078Z,20.90
2018-06-24T04:26:50.812Z,20.90
2018-06-24T04:27:22.503Z,20.90
2018-06-24T04:27:54.239Z,20.90
2018-06-24T04:28:26.000Z,20.90
2018-06-24T04:28:57.698Z,20.90
2018-06-24T04:29:29.492Z,20.80
2018-06-24T04:30:01.198Z,20.90
2018-06-24T04:30:32.914Z,20.80
2018-06-24T04:31:04.613Z,20.80
2018-06-24T04:31:36.344Z,20.80
2018-06-24T04:32:08.069Z,20.80
2018-06-24T04:32:39.800Z,20.80
2018-06-24T04:33:11.550Z,20.80
2018-06-24T04:33:43.263Z,20.80
2018-06-24T04:34:14.991Z,20.90
2018-06-24T04:34:46.759Z,20.90
2018-06-24T04:35:18.484Z,20.90
2018-06-24T04:35:50.189Z,20.90
2018-06-24T04:36:21.911Z,20.90
2018-06-24T04:36:53.630Z,20.90
2018-06-24T04:37:25.339Z,20.90
2018-06-24T04:37:57.093Z,20.90
2018-06-24T04:38:28.810Z,20.90
2018-06-24T04:39:00.549Z,20.90
2018-06-24T04:39:32.265Z,20.90
2018-06-24T04:40:03.979Z,20.90
2018-06-24T04:40:35.711Z,20.90
2018-06-24T04:41:07.415Z,20.90
2018-06-24T04:41:39.149Z,20.90
2018-06-24T04:42:10.860Z,20.90
2018-06-24T04:42:42.591Z,20.90
2018-06-24T04:43:14.332Z,20.90
2018-06-24T04:43:46.022Z,20.90
2018-06-24T04:44:17.750Z,20.90
2018-06-24T04:44:49.461Z,20.90
2018-06-24T04:45:21.173Z,20.90
2018-06-24T04:45:52.906Z,20.90
2018-06-24T04:46:24.626Z,21.00
2018-06-24T04:46:56.333Z,21.00
2018-06-24T04:47:28.063Z,21.00
2018-06-24T04:47:59.778Z,21.00
2018-06-24T04:48:31.494Z,21.00
2018-06-24T04:49:03.225Z,21.00
2018-06-24T04:49:34.946Z,21.00
2018-06-24T04:50:06.697Z,21.00
2018-06-24T04:50:38.386Z,21.00
2018-06-24T04:51:10.111Z,21.00
2018-06-24T04:51:41.863Z,21.00
2018-06-24T04:52:13.618Z,21.00
2018-06-24T04:52:45.348Z,21.00
2018-06-24T04:53:17.057Z,21.00
2018-06-24T04:53:48.786Z,21.00
2018-06-24T04:54:20.496Z,21.00
2018-06-24T04:54:52.252Z,21.00
2018-06-24T04:55:23.974Z,21.00
2018-06-24T04:55:55.815Z,21.00
2018-06-24T04:56:27.602Z,21.00
2018-06-24T04:56:59.341Z,21.00
2018-06-24T04:57:31.059Z,21.00
2018-06-24T04:58:02.776Z,21.10
2018-06-24T04:58:34.488Z,21.10
2018-06-24T04:59:06.196Z,21.10
2018-06-24T04:59:37.914Z,21.10
2018-06-24T05:00:09.645Z,21.10
2018-06-24T05:00:41.357Z,21.10
2018-06-24T05:01:13.071Z,21.10
2018-06-24T05:01:44.783Z,21.10
2018-06-24T05:02:16.494Z,21.10
2018-06-24T05:02:48.225Z,21.00
2018-06-24T05:03:19.945Z,21.10
2018-06-24T05:03:51.662Z,21.10
2018-06-24T05:04:23.371Z,21.10
2018-06-24T05:04:55.092Z,21.10
2018-06-24T05:05:26.819Z,21.10
2018-06-24T05:05:58.525Z,21.10
2018-06-24T05:06:30.282Z,21.10
2018-06-24T05:07:01.966Z,21.10
2018-06-24T05:07:33.662Z,21.10
2018-06-24T05:08:05.383Z,21.10
2018-06-24T05:08:37.082Z,21.10
2018-06-24T05:09:08.830Z,21.10
2018-06-24T05:09:40.545Z,21.10
2018-06-24T05:10:12.283Z,21.10
2018-06-24T05:10:43.992Z,21.10
2018-06-24T05:11:15.737Z,21.10
2018-06-24T05:11:47.474Z,21.10
2018-06-24T05:12:19.196Z,21.10
2018-06-24T05:12:50.948Z,21.00
2018-06-24T05:13:22.679Z,21.00
2018-06-24T05:13:54.390Z,21.10
2018-06-24T05:14:26.095Z,21.10
2018-06-24T05:14:57.829Z,21.10
2018-06-24T05:15:29.592Z,21.10
2018-06-24T05:16:01.339Z,21.00
2018-06-24T05:16:33.060Z,21.10
2018-06-24T05:17:04.777Z,21.10
2018-06-24T05:17:36.495Z,21.10
2018-06-24T05:18:08.204Z,21.10
2018-06-24T05:18:39.939Z,21.10
2018-06-24T05:19:11.684Z,21.10
2018-06-24T05:19:43.456Z,21.10
2018-06-24T05:20:15.111Z,21.10
2018-06-24T05:20:46.846Z,21.10
2018-06-24T05:21:18.563Z,21.10
2018-06-24T05:21:50.305Z,21.10
2018-06-24T05:22:22.048Z,21.10
2018-06-24T05:22:53.791Z,21.10
2018-06-24T05:23:25.512Z,21.20
2018-06-24T05:23:57.224Z,21.20
2018-06-24T05:24:28.921Z,21.20
2018-06-24T05:25:00.650Z,21.20
2018-06-24T05:25:32.386Z,21.20
2018-06-24T05:26:04.117Z,21.20
2018-06-24T05:26:35.803Z,21.10
2018-06-24T05:27:07.499Z,21.10
2018-06-24T05:27:39.292Z,21.10
2018-06-24T05:28:10.943Z,21.10
2018-06-24T05:28:42.677Z,21.10
2018-06-24T05:29:14.398Z,21.10
2018-06-24T05:29:46.124Z,21.10
2018-06-24T05:30:18.534Z,21.10
2018-06-24T05:30:49.549Z,21.10
2018-06-24T05:31:21.282Z,21.10
2018-06-24T05:31:52.994Z,21.10
2018-06-24T05:32:24.698Z,21.10
2018-06-24T05:32:56.423Z,21.10
2018-06-24T05:33:28.146Z,21.10
2018-06-24T05:33:59.869Z,21.20
2018-06-24T05:34:31.645Z,21.20
2018-06-24T05:35:03.369Z,21.20
2018-06-24T05:35:35.102Z,21.20
2018-06-24T05:36:06.842Z,21.20
2018-06-24T05:36:38.556Z,21.20
2018-06-24T05:37:10.275Z,21.20
2018-06-24T05:37:42.010Z,21.20
2018-06-24T05:38:13.726Z,21.20
2018-06-24T05:38:45.439Z,21.20
2018-06-24T05:39:17.152Z,21.20
2018-06-24T05:39:48.859Z,21.20
2018-06-24T05:40:20.611Z,21.20
2018-06-24T05:40:52.325Z,21.20
2018-06-24T05:41:24.039Z,21.20
2018-06-24T05:41:55.754Z,21.20
2018-06-24T05:42:27.480Z,21.20
2018-06-24T05:42:59.248Z,21.20
2018-06-24T05:43:30.914Z,21.20
2018-06-24T05:44:02.635Z,21.20
2018-06-24T05:44:34.379Z,21.20
2018-06-24T05:45:06.102Z,21.20
2018-06-24T05:45:37.829Z,21.20
2018-06-24T05:46:09.566Z,21.20
2018-06-24T05:46:41.282Z,21.30
2018-06-24T05:47:13.002Z,21.20
2018-06-24T05:47:44.752Z,21.20
2018-06-24T05:48:16.470Z,21.20
2018-06-24T05:48:48.269Z,21.20
2018-06-24T05:49:19.954Z,21.20
2018-06-24T05:49:51.661Z,21.20
2018-06-24T05:50:23.404Z,21.20
2018-06-24T05:50:55.123Z,21.20
2018-06-24T05:51:26.848Z,21.20
2018-06-24T05:51:58.560Z,21.20
2018-06-24T05:52:30.293Z,21.20
2018-06-24T05:53:02.038Z,21.20
2018-06-24T05:53:33.734Z,21.20
2018-06-24T05:54:05.471Z,21.20
2018-06-24T05:54:37.173Z,21.20
2018-06-24T05:55:08.884Z,21.20
2018-06-24T05:55:40.597Z,21.20
2018-06-24T05:56:12.345Z,21.20
2018-06-24T05:56:44.090Z,21.20
2018-06-24T05:57:15.811Z,21.20
2018-06-24T05:57:47.542Z,21.20
2018-06-24T05:58:19.257Z,21.20
2018-06-24T05:58:50.974Z,21.30
2018-06-24T05:59:22.701Z,21.30
2018-06-24T05:59:54.423Z,21.30
2018-06-24T06:00:26.140Z,21.30
2018-06-24T06:00:57.904Z,21.30
2018-06-24T06:01:29.601Z,21.30
2018-06-24T06:02:01.326Z,21.30
2018-06-24T06:02:33.071Z,21.30
2018-06-24T06:03:36.887Z,21.30
2018-06-24T06:04:08.562Z,21.30
2018-06-24T06:04:40.272Z,21.30
2018-06-24T06:05:12.009Z,21.30
2018-06-24T06:05:43.725Z,21.30
2018-06-24T06:06:15.486Z,21.30
2018-06-24T06:06:47.217Z,21.30
2018-06-24T06:07:18.965Z,21.30
2018-06-24T06:07:50.679Z,21.30
2018-06-24T06:08:22.419Z,21.30
2018-06-24T06:08:54.133Z,21.30
2018-06-24T06:09:25.834Z,21.30
2018-06-24T06:09:57.563Z,21.30
2018-06-24T06:10:29.351Z,21.30
2018-06-24T06:11:01.043Z,21.30
2018-06-24T06:11:32.819Z,21.30
2018-06-24T06:12:04.510Z,21.30
2018-06-24T06:12:36.240Z,21.30
2018-06-24T06:13:07.965Z,21.30
2018-06-24T06:13:39.694Z,21.30
2018-06-24T06:14:11.401Z,21.30
2018-06-24T06:14:43.112Z,21.20
2018-06-24T06:15:14.821Z,21.20
2018-06-24T06:15:46.561Z,21.20
2018-06-24T06:16:18.280Z,21.20
2018-06-24T06:16:50.035Z,21.20
2018-06-24T06:17:21.765Z,21.20
2018-06-24T06:17:53.504Z,21.30
2018-06-24T06:18:25.225Z,21.20
2018-06-24T06:18:56.934Z,21.20
2018-06-24T06:19:28.667Z,21.20
2018-06-24T06:20:00.370Z,21.20
2018-06-24T06:20:32.086Z,21.20
2018-06-24T06:21:03.796Z,21.30
2018-06-24T06:21:35.542Z,21.30
2018-06-24T06:22:07.246Z,21.30
2018-06-24T06:22:38.965Z,21.30
2018-06-24T06:23:10.700Z,21.20
2018-06-24T06:23:42.434Z,21.30
2018-06-24T06:24:14.133Z,21.30
2018-06-24T06:24:45.900Z,21.30
2018-06-24T06:25:17.637Z,21.20
2018-06-24T06:25:49.354Z,21.30
2018-06-24T06:26:21.064Z,21.30
2018-06-24T06:26:52.783Z,21.30
2018-06-24T06:27:24.512Z,21.30
2018-06-24T06:27:56.239Z,21.30
2018-06-24T06:28:27.951Z,21.20
2018-06-24T06:28:59.694Z,21.20
2018-06-24T06:29:31.412Z,21.10
2018-06-24T06:30:03.118Z,21.10
2018-06-24T06:30:34.842Z,21.10
2018-06-24T06:31:06.566Z,21.10
2018-06-24T06:31:38.276Z,21.10
2018-06-24T06:32:09.989Z,21.10
2018-06-24T06:32:41.710Z,21.10
2018-06-24T06:33:13.426Z,21.10
2018-06-24T06:33:45.147Z,21.10
2018-06-24T06:34:16.865Z,21.10
2018-06-24T06:34:48.564Z,21.10
2018-06-24T06:35:20.272Z,21.10
2018-06-24T06:35:52.027Z,21.10
2018-06-24T06:36:23.731Z,21.10
2018-06-24T06:36:55.516Z,21.10
2018-06-24T06:37:27.255Z,21.10
2018-06-24T06:37:58.968Z,21.10
2018-06-24T06:38:30.689Z,21.10
2018-06-24T06:39:02.413Z,21.10
2018-06-24T06:39:34.140Z,21.10
2018-06-24T06:40:05.842Z,21.10
2018-06-24T06:40:37.566Z,21.10
2018-06-24T06:41:09.321Z,21.10
2018-06-24T06:41:41.006Z,21.10
2018-06-24T06:42:12.738Z,21.10
2018-06-24T06:42:44.455Z,21.10
2018-06-24T06:43:16.198Z,21.10
2018-06-24T06:43:47.912Z,21.10
2018-06-24T06:44:19.619Z,21.10
2018-06-24T06:44:51.407Z,21.10
2018-06-24T06:45:23.216Z,21.20
2018-06-24T06:45:54.858Z,21.20
2018-06-24T06:46:26.603Z,21.20
2018-06-24T06:46:58.310Z,21.20
2018-06-24T06:47:30.019Z,21.20
2018-06-24T06:48:01.759Z,21.20
2018-06-24T06:48:33.474Z,21.30
2018-06-24T06:49:05.186Z,21.20